Calumet Park, IL (60827)

10:41 PM CST on December 22, 2014 (GMT -0600)
Morgan Park | Change Station
CLOSE
Current Station
Personal Weather Station
Location: Chicago, IL
Elevation: 616 ft
Nearby Weather Stations
Active Advisory: Special Statement

Elev 616 ft 41.69 °N, 87.69 °W | Updated 1 minute ago

Overcast
Overcast
42.0 °F
Feels Like 38 °F
N
6.0
Wind Variable Wind from ESE
Gusts 6.0 mph

Today
High -- | Low -- °F
--% Chance of Precip.
Yesterday
High -- | Low -- °F
Precip. -- in
7:14 AM 4:23 PM
New Moon, 2% visible
Pressure 29.62 in
Visibility 5.0 miles
Clouds Mostly Cloudy 1000 ft
Overcast 1600 ft
Windchill 38 °F
Dew Point 40 °F
Humidity 94%
Rainfall 0.38 in
Snow Depth Not available.
UV 0.0 out of 12
Pollen .10 out of 12
Air Quality Not available.
Flu Activity Not available.
METAR KIGQ 230435Z AUTO 13011G19KT 5SM -DZ BKN010 OVC016 05/04 A2962 RMK AO2 T00520044

More Conditions Fewer Conditions

Pressure 29.62 in
Visibility 5.0 miles
Clouds Mostly Cloudy 1000 ft
Overcast 1600 ft
Windchill 38 °F
Dew Point 40 °F
Humidity 94%
Rainfall 0.38 in
Snow Depth Not available.
UV 0.0 out of 12
Pollen .10 out of 12
Air Quality Not available.
Flu Activity Not available.
METAR KIGQ 230435Z AUTO 13011G19KT 5SM -DZ BKN010 OVC016 05/04 A2962 RMK AO2 T00520044

More Conditions Fewer Conditions

10-Day Weather Forecast

Almanac

Astronomy

Dec. 22, 2014 Rise Set
Actual Time
Civil Twilight
Nautical Twilight
Astronomical Twilight
Moon
Length of Visible Light
Length of Day
Tomorrow will be .
, % of the Moon is Illuminated

Today's Extremes

State Highs State Lows

Community

WunderPhotos

Upload Photos

1,779,778 photos uploaded!

WunderBlogs® & News

Nearby

Air Quality

  Air Quality AQ Index Pollutant
Not available.

Snow Depth

Station Depth Elevation

Earthquake Activity

City Distance Mag. Time & Date
Minimum magnitude displayed is 2.5.

Coastal Water Temperatures

Place Temperature

Nearby Weather Stations